sensor_id;sensor_type;location;lat;lon;timestamp;pressure;altitude;pressure_sealevel;temperature;humidity
39443;BME280;25147;52.142;9.960;2023-05-12T00:01:16;100641.75;;;11.88;100.00
39443;BME280;25147;52.142;9.960;2023-05-12T00:03:44;100638.38;;;11.81;100.00
39443;BME280;25147;52.142;9.960;2023-05-12T00:06:11;100647.00;;;11.88;100.00
39443;BME280;25147;52.142;9.960;2023-05-12T00:08:37;100648.03;;;11.79;100.00
39443;BME280;25147;52.142;9.960;2023-05-12T00:11:04;100637.56;;;11.78;100.00
39443;BME280;25147;52.142;9.960;2023-05-12T00:13:31;100632.34;;;11.76;100.00
39443;BME280;25147;52.142;9.960;2023-05-12T00:15:59;100628.97;;;11.70;100.00
39443;BME280;25147;52.142;9.960;2023-05-12T00:18:26;100650.63;;;11.82;100.00
39443;BME280;25147;52.142;9.960;2023-05-12T00:20:53;100655.88;;;11.82;100.00
39443;BME280;25147;52.142;9.960;2023-05-12T00:23:20;100581.47;;;11.35;100.00
39443;BME280;25147;52.142;9.960;2023-05-12T00:25:47;100611.00;;;11.48;100.00
39443;BME280;25147;52.142;9.960;2023-05-12T00:28:14;100655.16;;;11.73;100.00
39443;BME280;25147;52.142;9.960;2023-05-12T00:30:40;100640.41;;;11.64;100.00
39443;BME280;25147;52.142;9.960;2023-05-12T00:33:08;100669.06;;;11.76;100.00
39443;BME280;25147;52.142;9.960;2023-05-12T00:35:35;100635.44;;;11.50;100.00
39443;BME280;25147;52.142;9.960;2023-05-12T00:38:05;100665.56;;;11.76;100.00
39443;BME280;25147;52.142;9.960;2023-05-12T00:40:32;100676.06;;;11.77;100.00
39443;BME280;25147;52.142;9.960;2023-05-12T00:42:58;100642.06;;;11.70;100.00
39443;BME280;25147;52.142;9.960;2023-05-12T00:45:25;100623.00;;;11.60;100.00
39443;BME280;25147;52.142;9.960;2023-05-12T00:47:54;100639.47;;;11.68;100.00
39443;BME280;25147;52.142;9.960;2023-05-12T00:50:22;100608.31;;;11.50;100.00
39443;BME280;25147;52.142;9.960;2023-05-12T00:52:49;100629.97;;;11.62;100.00
39443;BME280;25147;52.142;9.960;2023-05-12T00:55:17;100659.34;;;11.83;100.00
39443;BME280;25147;52.142;9.960;2023-05-12T00:57:44;100668.06;;;11.83;100.00
39443;BME280;25147;52.142;9.960;2023-05-12T01:00:12;100668.06;;;11.83;100.00
39443;BME280;25147;52.142;9.960;2023-05-12T01:02:39;100675.94;;;11.83;100.00
39443;BME280;25147;52.142;9.960;2023-05-12T01:05:06;100661.97;;;11.83;100.00
39443;BME280;25147;52.142;9.960;2023-05-12T01:07:35;100638.47;;;11.77;100.00
39443;BME280;25147;52.142;9.960;2023-05-12T01:10:15;100660.22;;;11.83;100.00
39443;BME280;25147;52.142;9.960;2023-05-12T01:12:42;100657.59;;;11.83;100.00
39443;BME280;25147;52.142;9.960;2023-05-12T01:15:10;100654.97;;;11.82;100.00
39443;BME280;25147;52.142;9.960;2023-05-12T01:17:39;100625.63;;;11.61;100.00
39443;BME280;25147;52.142;9.960;2023-05-12T01:20:11;100669.84;;;11.83;100.00
39443;BME280;25147;52.142;9.960;2023-05-12T01:22:39;100675.06;;;11.84;100.00
39443;BME280;25147;52.142;9.960;2023-05-12T01:25:09;100605.81;;;11.43;100.00
39443;BME280;25147;52.142;9.960;2023-05-12T01:27:39;100692.59;;;11.82;100.00
39443;BME280;25147;52.142;9.960;2023-05-12T01:30:08;100682.13;;;11.81;100.00
39443;BME280;25147;52.142;9.960;2023-05-12T01:32:37;100672.53;;;11.78;100.00
39443;BME280;25147;52.142;9.960;2023-05-12T01:35:04;100677.81;;;11.77;100.00
39443;BME280;25147;52.142;9.960;2023-05-12T01:37:31;100658.84;;;11.61;100.00
39443;BME280;25147;52.142;9.960;2023-05-12T01:39:58;100671.66;;;11.78;100.00
39443;BME280;25147;52.142;9.960;2023-05-12T01:42:24;100664.00;;;11.67;100.00
39443;BME280;25147;52.142;9.960;2023-05-12T01:44:53;100636.31;;;11.49;100.00
39443;BME280;25147;52.142;9.960;2023-05-12T01:47:19;100687.41;;;11.78;100.00
39443;BME280;25147;52.142;9.960;2023-05-12T01:49:46;100679.63;;;11.73;100.00
39443;BME280;25147;52.142;9.960;2023-05-12T01:52:13;100665.78;;;11.63;100.00
39443;BME280;25147;52.142;9.960;2023-05-12T01:54:39;100695.28;;;11.76;100.00
39443;BME280;25147;52.142;9.960;2023-05-12T01:57:06;100689.19;;;11.76;100.00
39443;BME280;25147;52.142;9.960;2023-05-12T01:59:33;100683.09;;;11.75;100.00
39443;BME280;25147;52.142;9.960;2023-05-12T02:02:02;100679.56;;;11.76;100.00
39443;BME280;25147;52.142;9.960;2023-05-12T02:04:28;100655.38;;;11.60;100.00
39443;BME280;25147;52.142;9.960;2023-05-12T02:06:55;100690.97;;;11.72;100.00
39443;BME280;25147;52.142;9.960;2023-05-12T02:09:22;100704.94;;;11.74;100.00
39443;BME280;25147;52.142;9.960;2023-05-12T02:11:49;100689.19;;;11.74;100.00
39443;BME280;25147;52.142;9.960;2023-05-12T02:14:15;100678.88;;;11.65;100.00
39443;BME280;25147;52.142;9.960;2023-05-12T02:16:42;100683.31;;;11.60;100.00
39443;BME280;25147;52.142;9.960;2023-05-12T02:19:10;100709.50;;;11.64;100.00
39443;BME280;25147;52.142;9.960;2023-05-12T02:21:37;100625.47;;;11.16;100.00
39443;BME280;25147;52.142;9.960;2023-05-12T02:24:04;100693.78;;;11.63;100.00
39443;BME280;25147;52.142;9.960;2023-05-12T02:26:31;100695.53;;;11.62;100.00
39443;BME280;25147;52.142;9.960;2023-05-12T02:28:57;100691.34;;;11.52;100.00
39443;BME280;25147;52.142;9.960;2023-05-12T02:31:24;100693.00;;;11.56;100.00
39443;BME280;25147;52.142;9.960;2023-05-12T02:33:51;100700.00;;;11.56;100.00
39443;BME280;25147;52.142;9.960;2023-05-12T02:36:19;100640.25;;;11.22;100.00
39443;BME280;25147;52.142;9.960;2023-05-12T02:38:45;100640.25;;;11.20;100.00
39443;BME280;25147;52.142;9.960;2023-05-12T02:41:12;100685.19;;;11.53;100.00
39443;BME280;25147;52.142;9.960;2023-05-12T02:43:39;100632.38;;;11.23;100.00
39443;BME280;25147;52.142;9.960;2023-05-12T02:46:05;100668.78;;;11.42;100.00
39443;BME280;25147;52.142;9.960;2023-05-12T02:48:32;100690.50;;;11.49;100.00
39443;BME280;25147;52.142;9.960;2023-05-12T02:50:59;100667.97;;;11.35;100.00
39443;BME280;25147;52.142;9.960;2023-05-12T02:53:27;100688.75;;;11.49;100.00
39443;BME280;25147;52.142;9.960;2023-05-12T02:55:54;100674.06;;;11.37;100.00
39443;BME280;25147;52.142;9.960;2023-05-12T02:58:21;100691.38;;;11.49;100.00
39443;BME280;25147;52.142;9.960;2023-05-12T03:00:48;100628.09;;;11.16;100.00
39443;BME280;25147;52.142;9.960;2023-05-12T03:03:14;100673.19;;;11.40;100.00
39443;BME280;25147;52.142;9.960;2023-05-12T03:05:41;100675.81;;;11.40;100.00
39443;BME280;25147;52.142;9.960;2023-05-12T03:08:08;100659.34;;;11.29;100.00
39443;BME280;25147;52.142;9.960;2023-05-12T03:10:37;100666.25;;;11.36;100.00
39443;BME280;25147;52.142;9.960;2023-05-12T03:13:04;100687.06;;;11.45;100.00
39443;BME280;25147;52.142;9.960;2023-05-12T03:15:30;100677.50;;;11.41;100.00
39443;BME280;25147;52.142;9.960;2023-05-12T03:18:00;100685.16;;;11.55;100.00
39443;BME280;25147;52.142;9.960;2023-05-12T03:20:27;100686.88;;;11.56;100.00
39443;BME280;25147;52.142;9.960;2023-05-12T03:22:54;100673.13;;;11.43;100.00
39443;BME280;25147;52.142;9.960;2023-05-12T03:25:20;100690.50;;;11.49;100.00
39443;BME280;25147;52.142;9.960;2023-05-12T03:27:48;100699.13;;;11.55;100.00
39443;BME280;25147;52.142;9.960;2023-05-12T03:30:15;100702.69;;;11.53;100.00
39443;BME280;25147;52.142;9.960;2023-05-12T03:32:42;100700.94;;;11.52;100.00
39443;BME280;25147;52.142;9.960;2023-05-12T03:35:10;100696.81;;;11.37;100.00
39443;BME280;25147;52.142;9.960;2023-05-12T03:37:37;100700.34;;;11.34;100.00
39443;BME280;25147;52.142;9.960;2023-05-12T03:40:04;100699.31;;;11.43;100.00
39443;BME280;25147;52.142;9.960;2023-05-12T03:42:31;100683.78;;;11.31;100.00
39443;BME280;25147;52.142;9.960;2023-05-12T03:44:59;100636.25;;;10.96;100.00
39443;BME280;25147;52.142;9.960;2023-05-12T03:47:26;100718.53;;;11.43;100.00
39443;BME280;25147;52.142;9.960;2023-05-12T03:49:53;100694.28;;;11.29;100.00
39443;BME280;25147;52.142;9.960;2023-05-12T03:52:19;100722.97;;;11.40;100.00
39443;BME280;25147;52.142;9.960;2023-05-12T03:54:46;100720.38;;;11.37;100.00
39443;BME280;25147;52.142;9.960;2023-05-12T03:57:13;100710.00;;;11.29;100.00
39443;BME280;25147;52.142;9.960;2023-05-12T03:59:39;100685.75;;;11.15;100.00
39443;BME280;25147;52.142;9.960;2023-05-12T04:02:08;100729.13;;;11.37;100.00
39443;BME280;25147;52.142;9.960;2023-05-12T04:04:36;100739.59;;;11.39;100.00
39443;BME280;25147;52.142;9.960;2023-05-12T04:07:03;100717.00;;;11.32;100.00
39443;BME280;25147;52.142;9.960;2023-05-12T04:09:30;100712.63;;;11.29;100.00
39443;BME280;25147;52.142;9.960;2023-05-12T04:11:57;100730.94;;;11.34;100.00
39443;BME280;25147;52.142;9.960;2023-05-12T04:14:24;100705.75;;;11.22;100.00
39443;BME280;25147;52.142;9.960;2023-05-12T04:16:51;100726.56;;;11.33;100.00
39443;BME280;25147;52.142;9.960;2023-05-12T04:19:19;100706.69;;;11.18;100.00
39443;BME280;25147;52.142;9.960;2023-05-12T04:21:46;100749.31;;;11.32;100.00
39443;BME280;25147;52.142;9.960;2023-05-12T04:24:12;100678.28;;;10.87;100.00
39443;BME280;25147;52.142;9.960;2023-05-12T04:26:39;100750.16;;;11.33;100.00
39443;BME280;25147;52.142;9.960;2023-05-12T04:29:06;100732.84;;;11.21;100.00
39443;BME280;25147;52.142;9.960;2023-05-12T04:31:32;100758.94;;;11.29;100.00
39443;BME280;25147;52.142;9.960;2023-05-12T04:33:59;100717.28;;;11.10;100.00
39443;BME280;25147;52.142;9.960;2023-05-12T04:36:28;100712.03;;;11.12;100.00
39443;BME280;25147;52.142;9.960;2023-05-12T04:38:55;100753.72;;;11.29;100.00
39443;BME280;25147;52.142;9.960;2023-05-12T04:41:22;100747.53;;;11.34;100.00
39443;BME280;25147;52.142;9.960;2023-05-12T04:43:49;100756.25;;;11.33;100.00
39443;BME280;25147;52.142;9.960;2023-05-12T04:46:16;100754.63;;;11.24;100.00
39443;BME280;25147;52.142;9.960;2023-05-12T04:48:42;100727.75;;;11.10;100.00
39443;BME280;25147;52.142;9.960;2023-05-12T04:51:09;100764.09;;;11.38;100.00
39443;BME280;25147;52.142;9.960;2023-05-12T04:53:37;100732.91;;;11.18;100.00
39443;BME280;25147;52.142;9.960;2023-05-12T04:56:05;100744.16;;;11.24;100.00
39443;BME280;25147;52.142;9.960;2023-05-12T04:58:32;100776.19;;;11.47;100.00
39443;BME280;25147;52.142;9.960;2023-05-12T05:00:59;100731.13;;;11.20;100.00
39443;BME280;25147;52.142;9.960;2023-05-12T05:03:26;100692.97;;;10.99;100.00
39443;BME280;25147;52.142;9.960;2023-05-12T05:05:52;100750.16;;;11.34;100.00
39443;BME280;25147;52.142;9.960;2023-05-12T05:08:19;100757.84;;;11.45;100.00
39443;BME280;25147;52.142;9.960;2023-05-12T05:10:48;100762.16;;;11.49;100.00
39443;BME280;25147;52.142;9.960;2023-05-12T05:13:14;100760.41;;;11.50;100.00
39443;BME280;25147;52.142;9.960;2023-05-12T05:15:48;100773.38;;;11.60;100.00
39443;BME280;25147;52.142;9.960;2023-05-12T05:18:15;100702.25;;;11.23;100.00
39443;BME280;25147;52.142;9.960;2023-05-12T05:20:42;100755.88;;;11.61;100.00
39443;BME280;25147;52.142;9.960;2023-05-12T05:23:09;100764.44;;;11.72;100.00
39443;BME280;25147;52.142;9.960;2023-05-12T05:25:36;100777.38;;;11.84;100.00
39443;BME280;25147;52.142;9.960;2023-05-12T05:28:05;100769.53;;;11.81;100.00
39443;BME280;25147;52.142;9.960;2023-05-12T05:30:35;100767.69;;;11.90;100.00
39443;BME280;25147;52.142;9.960;2023-05-12T05:33:02;100770.25;;;11.94;100.00
39443;BME280;25147;52.142;9.960;2023-05-12T05:35:29;100782.31;;;12.06;100.00
39443;BME280;25147;52.142;9.960;2023-05-12T05:37:56;100780.59;;;12.05;100.00
39443;BME280;25147;52.142;9.960;2023-05-12T05:40:22;100778.81;;;12.07;100.00
39443;BME280;25147;52.142;9.960;2023-05-12T05:42:49;100748.38;;;11.95;100.00
39443;BME280;25147;52.142;9.960;2023-05-12T05:45:17;100795.94;;;12.27;100.00
39443;BME280;25147;52.142;9.960;2023-05-12T05:47:44;100791.63;;;12.26;100.00
39443;BME280;25147;52.142;9.960;2023-05-12T05:50:14;100771.56;;;12.20;100.00
39443;BME280;25147;52.142;9.960;2023-05-12T05:52:40;100801.81;;;12.42;100.00
39443;BME280;25147;52.142;9.960;2023-05-12T05:55:07;100794.75;;;12.46;100.00
39443;BME280;25147;52.142;9.960;2023-05-12T05:57:34;100780.91;;;12.38;100.00
39443;BME280;25147;52.142;9.960;2023-05-12T06:00:01;100772.97;;;12.39;100.00
39443;BME280;25147;52.142;9.960;2023-05-12T06:02:30;100794.72;;;12.48;100.00
39443;BME280;25147;52.142;9.960;2023-05-12T06:04:58;100805.97;;;12.56;100.00
39443;BME280;25147;52.142;9.960;2023-05-12T06:07:25;100795.59;;;12.48;100.00
39443;BME280;25147;52.142;9.960;2023-05-12T06:09:52;100789.53;;;12.44;100.00
39443;BME280;25147;52.142;9.960;2023-05-12T06:12:19;100814.56;;;12.64;100.00
39443;BME280;25147;52.142;9.960;2023-05-12T06:14:46;100751.31;;;12.27;100.00
39443;BME280;25147;52.142;9.960;2023-05-12T06:17:13;100789.44;;;12.49;100.00
39443;BME280;25147;52.142;9.960;2023-05-12T06:19:41;100823.19;;;12.71;100.00
39443;BME280;25147;52.142;9.960;2023-05-12T06:22:08;100745.22;;;12.24;100.00
39443;BME280;25147;52.142;9.960;2023-05-12T06:24:35;100809.25;;;12.67;100.00
39443;BME280;25147;52.142;9.960;2023-05-12T06:27:02;100819.63;;;12.75;100.00
39443;BME280;25147;52.142;9.960;2023-05-12T06:29:28;100805.06;;;12.57;100.00
39443;BME280;25147;52.142;9.960;2023-05-12T06:31:55;100822.38;;;12.67;100.00
39443;BME280;25147;52.142;9.960;2023-05-12T06:34:22;100820.59;;;12.69;100.00
39443;BME280;25147;52.142;9.960;2023-05-12T06:36:50;100803.97;;;12.69;100.00
39443;BME280;25147;52.142;9.960;2023-05-12T06:39:17;100828.22;;;12.81;100.00
39443;BME280;25147;52.142;9.960;2023-05-12T06:41:43;100803.00;;;12.73;100.00
39443;BME280;25147;52.142;9.960;2023-05-12T06:44:10;100834.03;;;12.99;100.00
39443;BME280;25147;52.142;9.960;2023-05-12T06:46:37;100846.16;;;13.06;100.00
39443;BME280;25147;52.142;9.960;2023-05-12T06:49:03;100830.41;;;13.04;100.00
39443;BME280;25147;52.142;9.960;2023-05-12T06:51:30;100852.91;;;13.21;100.00
39443;BME280;25147;52.142;9.960;2023-05-12T06:53:58;100772.06;;;12.89;100.00
39443;BME280;25147;52.142;9.960;2023-05-12T06:56:25;100819.47;;;13.26;100.00
39443;BME280;25147;52.142;9.960;2023-05-12T06:58:53;100828.28;;;13.25;100.00
39443;BME280;25147;52.142;9.960;2023-05-12T07:01:25;100822.84;;;13.33;100.00
39443;BME280;25147;52.142;9.960;2023-05-12T07:03:52;100840.13;;;13.46;100.00
39443;BME280;25147;52.142;9.960;2023-05-12T07:06:19;100835.63;;;13.51;100.00
39443;BME280;25147;52.142;9.960;2023-05-12T07:08:46;100835.56;;;13.54;100.00
39443;BME280;25147;52.142;9.960;2023-05-12T07:11:14;100850.41;;;13.57;100.00
39443;BME280;25147;52.142;9.960;2023-05-12T07:13:44;100839.75;;;13.63;100.00
39443;BME280;25147;52.142;9.960;2023-05-12T07:16:11;100816.88;;;13.67;100.00
39443;BME280;25147;52.142;9.960;2023-05-12T07:18:38;100831.44;;;13.81;100.00
39443;BME280;25147;52.142;9.960;2023-05-12T07:21:06;100821.75;;;13.83;100.00
39443;BME280;25147;52.142;9.960;2023-05-12T07:23:33;100827.00;;;13.83;100.00
39443;BME280;25147;52.142;9.960;2023-05-12T07:26:00;100796.69;;;13.67;100.00
39443;BME280;25147;52.142;9.960;2023-05-12T07:28:29;100849.56;;;13.95;100.00
39443;BME280;25147;52.142;9.960;2023-05-12T07:31:00;100831.97;;;13.96;100.00
39443;BME280;25147;52.142;9.960;2023-05-12T07:33:27;100847.63;;;14.02;100.00
39443;BME280;25147;52.142;9.960;2023-05-12T07:35:54;100832.03;;;13.94;100.00
39443;BME280;25147;52.142;9.960;2023-05-12T07:38:20;100811.22;;;13.83;100.00
39443;BME280;25147;52.142;9.960;2023-05-12T07:40:48;100845.81;;;14.05;100.00
39443;BME280;25147;52.142;9.960;2023-05-12T07:43:16;100844.81;;;14.10;100.00
39443;BME280;25147;52.142;9.960;2023-05-12T07:45:44;100840.47;;;14.09;100.00
39443;BME280;25147;52.142;9.960;2023-05-12T07:48:12;100844.63;;;14.19;100.00
39443;BME280;25147;52.142;9.960;2023-05-12T07:50:39;100832.22;;;14.22;100.00
39443;BME280;25147;52.142;9.960;2023-05-12T07:53:06;100841.53;;;14.37;100.00
39443;BME280;25147;52.142;9.960;2023-05-12T07:55:32;100806.88;;;14.18;100.00
39443;BME280;25147;52.142;9.960;2023-05-12T07:57:59;100805.72;;;14.29;100.00
39443;BME280;25147;52.142;9.960;2023-05-12T08:00:26;100835.13;;;14.48;100.00
39443;BME280;25147;52.142;9.960;2023-05-12T08:02:54;100823.78;;;14.44;100.00
39443;BME280;25147;52.142;9.960;2023-05-12T08:05:21;100853.25;;;14.61;100.00
39443;BME280;25147;52.142;9.960;2023-05-12T08:07:48;100743.13;;;14.05;100.00
39443;BME280;25147;52.142;9.960;2023-05-12T08:10:15;100818.34;;;14.50;100.00
39443;BME280;25147;52.142;9.960;2023-05-12T08:12:43;100846.75;;;14.73;100.00
39443;BME280;25147;52.142;9.960;2023-05-12T08:15:11;100777.47;;;14.35;100.00
39443;BME280;25147;52.142;9.960;2023-05-12T08:17:37;100849.03;;;14.87;100.00
39443;BME280;25147;52.142;9.960;2023-05-12T08:20:07;100837.59;;;14.88;100.00
39443;BME280;25147;52.142;9.960;2023-05-12T08:22:34;100840.66;;;15.04;100.00
39443;BME280;25147;52.142;9.960;2023-05-12T08:25:01;100851.78;;;15.15;100.00
39443;BME280;25147;52.142;9.960;2023-05-12T08:27:27;100851.47;;;15.26;100.00
39443;BME280;25147;52.142;9.960;2023-05-12T08:29:55;100839.19;;;15.25;100.00
39443;BME280;25147;52.142;9.960;2023-05-12T08:32:21;100849.41;;;15.37;100.00
39443;BME280;25147;52.142;9.960;2023-05-12T08:34:49;100804.28;;;15.17;100.00
39443;BME280;25147;52.142;9.960;2023-05-12T08:37:17;100843.13;;;15.41;100.00
39443;BME280;25147;52.142;9.960;2023-05-12T08:39:44;100830.06;;;15.37;100.00
39443;BME280;25147;52.142;9.960;2023-05-12T08:42:17;100822.03;;;15.40;100.00
39443;BME280;25147;52.142;9.960;2023-05-12T08:44:48;100834.88;;;15.52;100.00
39443;BME280;25147;52.142;9.960;2023-05-12T08:47:17;100834.91;;;15.51;97.12
39443;BME280;25147;52.142;9.960;2023-05-12T08:49:45;100841.78;;;15.56;98.18
39443;BME280;25147;52.142;9.960;2023-05-12T08:52:16;100814.69;;;15.51;99.03
39443;BME280;25147;52.142;9.960;2023-05-12T08:54:46;100808.63;;;15.48;97.93
39443;BME280;25147;52.142;9.960;2023-05-12T08:57:19;100815.22;;;15.62;96.33
39443;BME280;25147;52.142;9.960;2023-05-12T08:59:47;100781.19;;;15.53;96.00
39443;BME280;25147;52.142;9.960;2023-05-12T09:02:23;100788.03;;;15.59;93.50
39443;BME280;25147;52.142;9.960;2023-05-12T09:04:51;100846.78;;;15.95;93.79
39443;BME280;25147;52.142;9.960;2023-05-12T09:07:21;100831.44;;;15.80;92.84
39443;BME280;25147;52.142;9.960;2023-05-12T09:09:53;100811.47;;;15.70;93.33
39443;BME280;25147;52.142;9.960;2023-05-12T09:12:24;100814.13;;;15.70;92.37
39443;BME280;25147;52.142;9.960;2023-05-12T09:14:56;100842.16;;;15.75;91.20
39443;BME280;25147;52.142;9.960;2023-05-12T09:17:25;100739.34;;;15.13;90.71
39443;BME280;25147;52.142;9.960;2023-05-12T09:19:52;100854.34;;;15.79;90.36
39443;BME280;25147;52.142;9.960;2023-05-12T09:22:28;100854.47;;;15.75;91.31
39443;BME280;25147;52.142;9.960;2023-05-12T09:24:55;100823.09;;;15.64;90.19
39443;BME280;25147;52.142;9.960;2023-05-12T09:27:25;100828.94;;;15.75;91.35
39443;BME280;25147;52.142;9.960;2023-05-12T09:29:52;100822.78;;;15.75;91.07
39443;BME280;25147;52.142;9.960;2023-05-12T09:32:29;100858.13;;;15.99;89.83
39443;BME280;25147;52.142;9.960;2023-05-12T09:35:01;100844.91;;;15.99;89.58
39443;BME280;25147;52.142;9.960;2023-05-12T09:37:33;100706.56;;;15.20;87.77
39443;BME280;25147;52.142;9.960;2023-05-12T09:40:00;100856.72;;;16.15;87.62
39443;BME280;25147;52.142;9.960;2023-05-12T09:42:29;100866.72;;;16.32;88.56
39443;BME280;25147;52.142;9.960;2023-05-12T09:44:58;100860.56;;;16.32;86.94
39443;BME280;25147;52.142;9.960;2023-05-12T09:47:33;100871.72;;;16.41;87.27
39443;BME280;25147;52.142;9.960;2023-05-12T09:50:07;100740.28;;;15.67;87.92
39443;BME280;25147;52.142;9.960;2023-05-12T09:52:37;100769.75;;;15.82;85.56
39443;BME280;25147;52.142;9.960;2023-05-12T09:55:06;100871.13;;;16.58;85.01
39443;BME280;25147;52.142;9.960;2023-05-12T09:57:37;100869.25;;;16.62;85.00
39443;BME280;25147;52.142;9.960;2023-05-12T10:00:11;100875.19;;;16.69;83.22
39443;BME280;25147;52.142;9.960;2023-05-12T10:02:47;100732.69;;;15.86;82.66
39443;BME280;25147;52.142;9.960;2023-05-12T10:05:22;100565.00;;;14.94;81.46
39443;BME280;25147;52.142;9.960;2023-05-12T10:07:54;100849.06;;;16.86;79.81
39443;BME280;25147;52.142;9.960;2023-05-12T10:10:25;100546.81;;;15.13;79.44
39443;BME280;25147;52.142;9.960;2023-05-12T10:12:53;100661.94;;;15.95;80.67
39443;BME280;25147;52.142;9.960;2023-05-12T10:15:22;100841.81;;;17.16;78.03
39443;BME280;25147;52.142;9.960;2023-05-12T10:17:50;100699.03;;;16.42;76.46
39443;BME280;25147;52.142;9.960;2023-05-12T10:20:19;100808.47;;;17.12;74.74
39443;BME280;25147;52.142;9.960;2023-05-12T10:22:47;100781.06;;;16.90;73.31
39443;BME280;25147;52.142;9.960;2023-05-12T10:25:17;100757.84;;;16.98;69.57
39443;BME280;25147;52.142;9.960;2023-05-12T10:27:45;100866.47;;;17.64;68.92
39443;BME280;25147;52.142;9.960;2023-05-12T10:30:13;100855.16;;;17.60;67.19
39443;BME280;25147;52.142;9.960;2023-05-12T10:32:41;100859.28;;;17.68;68.62
39443;BME280;25147;52.142;9.960;2023-05-12T10:35:09;100844.69;;;17.57;68.52
39443;BME280;25147;52.142;9.960;2023-05-12T10:37:38;100861.47;;;17.80;66.70
39443;BME280;25147;52.142;9.960;2023-05-12T10:40:05;100852.50;;;17.84;64.91
39443;BME280;25147;52.142;9.960;2023-05-12T10:42:38;100833.13;;;17.82;64.04
39443;BME280;25147;52.142;9.960;2023-05-12T10:45:14;100859.72;;;18.02;62.54
39443;BME280;25147;52.142;9.960;2023-05-12T10:47:43;100851.91;;;17.99;63.34
39443;BME280;25147;52.142;9.960;2023-05-12T10:50:10;100856.72;;;18.12;61.34
39443;BME280;25147;52.142;9.960;2023-05-12T10:52:39;100831.56;;;18.00;59.16
39443;BME280;25147;52.142;9.960;2023-05-12T10:55:11;100866.06;;;18.20;58.55
39443;BME280;25147;52.142;9.960;2023-05-12T10:57:47;100836.63;;;18.06;56.17
39443;BME280;25147;52.142;9.960;2023-05-12T11:00:15;100847.03;;;18.11;56.87
39443;BME280;25147;52.142;9.960;2023-05-12T11:02:48;100850.16;;;18.20;58.55
39443;BME280;25147;52.142;9.960;2023-05-12T11:05:16;100860.13;;;18.36;57.30
39443;BME280;25147;52.142;9.960;2023-05-12T11:07:46;100862.66;;;18.39;56.13
39443;BME280;25147;52.142;9.960;2023-05-12T11:10:15;100871.41;;;18.41;55.49
39443;BME280;25147;52.142;9.960;2023-05-12T11:12:43;100859.25;;;18.35;54.40
39443;BME280;25147;52.142;9.960;2023-05-12T11:15:12;100846.16;;;18.32;54.40
39443;BME280;25147;52.142;9.960;2023-05-12T11:17:40;100845.16;;;18.35;53.67
39443;BME280;25147;52.142;9.960;2023-05-12T11:20:07;100830.25;;;18.32;54.37
39443;BME280;25147;52.142;9.960;2023-05-12T11:22:35;100844.00;;;18.42;54.88
39443;BME280;25147;52.142;9.960;2023-05-12T11:25:09;100862.56;;;18.62;54.86
39443;BME280;25147;52.142;9.960;2023-05-12T11:27:36;100826.03;;;18.49;54.72
39443;BME280;25147;52.142;9.960;2023-05-12T11:30:08;100846.13;;;18.75;56.00
39443;BME280;25147;52.142;9.960;2023-05-12T11:32:37;100854.50;;;18.86;54.94
39443;BME280;25147;52.142;9.960;2023-05-12T11:35:08;100782.75;;;18.48;53.17
39443;BME280;25147;52.142;9.960;2023-05-12T11:37:36;100851.56;;;18.92;52.76
39443;BME280;25147;52.142;9.960;2023-05-12T11:40:12;100845.75;;;18.84;52.21
39443;BME280;25147;52.142;9.960;2023-05-12T11:42:38;100848.97;;;18.91;52.66
39443;BME280;25147;52.142;9.960;2023-05-12T11:45:18;100841.50;;;18.80;51.71
39443;BME280;25147;52.142;9.960;2023-05-12T11:47:47;100851.63;;;18.91;52.74
39443;BME280;25147;52.142;9.960;2023-05-12T11:50:19;100836.38;;;18.75;52.62
39443;BME280;25147;52.142;9.960;2023-05-12T11:52:46;100841.88;;;18.71;53.79
39443;BME280;25147;52.142;9.960;2023-05-12T11:55:19;100856.59;;;18.78;54.75
39443;BME280;25147;52.142;9.960;2023-05-12T11:58:00;100839.81;;;18.77;53.56
39443;BME280;25147;52.142;9.960;2023-05-12T12:00:30;100860.38;;;18.93;53.16
39443;BME280;25147;52.142;9.960;2023-05-12T12:03:12;100861.00;;;18.99;51.55
39443;BME280;25147;52.142;9.960;2023-05-12T12:05:42;100856.22;;;19.08;51.89
39443;BME280;25147;52.142;9.960;2023-05-12T12:08:11;100856.72;;;19.16;49.93
39443;BME280;25147;52.142;9.960;2023-05-12T12:10:41;100856.44;;;19.22;50.17
39443;BME280;25147;52.142;9.960;2023-05-12T12:13:12;100804.31;;;19.00;50.12
39443;BME280;25147;52.142;9.960;2023-05-12T12:15:47;100576.19;;;17.63;50.87
39443;BME280;25147;52.142;9.960;2023-05-12T12:18:16;100792.47;;;19.09;50.30
39443;BME280;25147;52.142;9.960;2023-05-12T12:20:43;100857.91;;;19.48;49.36
39443;BME280;25147;52.142;9.960;2023-05-12T12:23:10;100858.03;;;19.45;49.12
39443;BME280;25147;52.142;9.960;2023-05-12T12:25:37;100852.28;;;19.35;50.23
39443;BME280;25147;52.142;9.960;2023-05-12T12:28:04;100804.03;;;19.07;49.62
39443;BME280;25147;52.142;9.960;2023-05-12T12:30:30;100849.41;;;19.21;49.23
39443;BME280;25147;52.142;9.960;2023-05-12T12:32:57;100842.31;;;19.21;50.05
39443;BME280;25147;52.142;9.960;2023-05-12T12:35:25;100857.88;;;19.29;50.45
39443;BME280;25147;52.142;9.960;2023-05-12T12:37:52;100860.47;;;19.31;51.40
39443;BME280;25147;52.142;9.960;2023-05-12T12:40:19;100854.16;;;19.33;51.42
39443;BME280;25147;52.142;9.960;2023-05-12T12:42:46;100678.72;;;18.41;51.41
39443;BME280;25147;52.142;9.960;2023-05-12T12:45:13;100852.44;;;19.51;50.25
39443;BME280;25147;52.142;9.960;2023-05-12T12:47:39;100789.59;;;19.14;50.55